sensor_id;sensor_type;location;lat;lon;timestamp;P1;durP1;ratioP1;P2;durP2;ratioP2
4839;SDS011;2434;48.486;7.964;2022-08-30T00:01:59;6.37;;;5.40;;
4839;SDS011;2434;48.486;7.964;2022-08-30T00:04:27;6.70;;;4.80;;
4839;SDS011;2434;48.486;7.964;2022-08-30T00:06:55;5.43;;;4.77;;
4839;SDS011;2434;48.486;7.964;2022-08-30T00:09:24;5.50;;;5.00;;
4839;SDS011;2434;48.486;7.964;2022-08-30T00:11:52;4.97;;;4.57;;
4839;SDS011;2434;48.486;7.964;2022-08-30T00:14:20;7.30;;;4.63;;
4839;SDS011;2434;48.486;7.964;2022-08-30T00:16:51;10.13;;;4.73;;
4839;SDS011;2434;48.486;7.964;2022-08-30T00:19:19;5.70;;;5.13;;
4839;SDS011;2434;48.486;7.964;2022-08-30T00:21:49;7.77;;;6.10;;
4839;SDS011;2434;48.486;7.964;2022-08-30T00:24:17;6.03;;;5.30;;
4839;SDS011;2434;48.486;7.964;2022-08-30T00:26:46;7.07;;;5.30;;
4839;SDS011;2434;48.486;7.964;2022-08-30T00:29:14;5.70;;;4.80;;
4839;SDS011;2434;48.486;7.964;2022-08-30T00:31:42;6.80;;;5.27;;
4839;SDS011;2434;48.486;7.964;2022-08-30T00:34:11;7.20;;;5.60;;
4839;SDS011;2434;48.486;7.964;2022-08-30T00:36:39;6.30;;;5.70;;
4839;SDS011;2434;48.486;7.964;2022-08-30T00:39:09;6.07;;;5.33;;
4839;SDS011;2434;48.486;7.964;2022-08-30T00:41:38;8.80;;;4.97;;
4839;SDS011;2434;48.486;7.964;2022-08-30T00:44:06;5.97;;;5.47;;
4839;SDS011;2434;48.486;7.964;2022-08-30T00:46:35;6.80;;;6.00;;
4839;SDS011;2434;48.486;7.964;2022-08-30T00:49:04;5.87;;;5.30;;
4839;SDS011;2434;48.486;7.964;2022-08-30T00:51:35;6.23;;;5.70;;
4839;SDS011;2434;48.486;7.964;2022-08-30T00:54:05;5.77;;;5.27;;
4839;SDS011;2434;48.486;7.964;2022-08-30T00:56:35;11.93;;;6.50;;
4839;SDS011;2434;48.486;7.964;2022-08-30T00:59:04;9.07;;;5.20;;
4839;SDS011;2434;48.486;7.964;2022-08-30T01:01:34;9.03;;;5.03;;
4839;SDS011;2434;48.486;7.964;2022-08-30T01:04:05;6.60;;;5.03;;
4839;SDS011;2434;48.486;7.964;2022-08-30T01:06:35;5.90;;;5.40;;
4839;SDS011;2434;48.486;7.964;2022-08-30T01:09:05;5.73;;;5.23;;
4839;SDS011;2434;48.486;7.964;2022-08-30T01:11:36;7.40;;;5.50;;
4839;SDS011;2434;48.486;7.964;2022-08-30T01:14:07;7.00;;;6.13;;
4839;SDS011;2434;48.486;7.964;2022-08-30T01:16:37;5.80;;;5.30;;
4839;SDS011;2434;48.486;7.964;2022-08-30T01:19:09;5.67;;;5.13;;
4839;SDS011;2434;48.486;7.964;2022-08-30T01:21:48;8.77;;;5.57;;
4839;SDS011;2434;48.486;7.964;2022-08-30T01:24:20;5.83;;;5.23;;
4839;SDS011;2434;48.486;7.964;2022-08-30T01:26:48;7.00;;;6.27;;
4839;SDS011;2434;48.486;7.964;2022-08-30T01:29:18;7.10;;;5.50;;
4839;SDS011;2434;48.486;7.964;2022-08-30T01:31:50;6.17;;;5.40;;
4839;SDS011;2434;48.486;7.964;2022-08-30T01:34:18;6.77;;;5.50;;
4839;SDS011;2434;48.486;7.964;2022-08-30T01:36:47;6.17;;;5.67;;
4839;SDS011;2434;48.486;7.964;2022-08-30T01:39:16;7.90;;;5.60;;
4839;SDS011;2434;48.486;7.964;2022-08-30T01:41:46;11.00;;;6.73;;
4839;SDS011;2434;48.486;7.964;2022-08-30T01:44:15;11.70;;;5.63;;
4839;SDS011;2434;48.486;7.964;2022-08-30T01:46:45;6.70;;;5.93;;
4839;SDS011;2434;48.486;7.964;2022-08-30T01:49:16;6.80;;;5.67;;
4839;SDS011;2434;48.486;7.964;2022-08-30T01:51:53;6.37;;;5.77;;
4839;SDS011;2434;48.486;7.964;2022-08-30T01:54:27;9.60;;;6.50;;
4839;SDS011;2434;48.486;7.964;2022-08-30T01:57:05;10.07;;;6.37;;
4839;SDS011;2434;48.486;7.964;2022-08-30T01:59:35;6.00;;;5.50;;
4839;SDS011;2434;48.486;7.964;2022-08-30T02:02:04;6.20;;;5.70;;
4839;SDS011;2434;48.486;7.964;2022-08-30T02:04:33;7.23;;;5.37;;
4839;SDS011;2434;48.486;7.964;2022-08-30T02:07:02;7.73;;;6.37;;
4839;SDS011;2434;48.486;7.964;2022-08-30T02:09:32;5.80;;;5.30;;
4839;SDS011;2434;48.486;7.964;2022-08-30T02:12:00;12.30;;;6.60;;
4839;SDS011;2434;48.486;7.964;2022-08-30T02:14:30;7.60;;;5.50;;
4839;SDS011;2434;48.486;7.964;2022-08-30T02:16:59;7.53;;;6.00;;
4839;SDS011;2434;48.486;7.964;2022-08-30T02:19:28;9.43;;;5.70;;
4839;SDS011;2434;48.486;7.964;2022-08-30T02:21:56;7.80;;;6.50;;
4839;SDS011;2434;48.486;7.964;2022-08-30T02:24:25;7.23;;;5.67;;
4839;SDS011;2434;48.486;7.964;2022-08-30T02:26:53;6.23;;;5.63;;
4839;SDS011;2434;48.486;7.964;2022-08-30T02:29:21;7.67;;;6.10;;
4839;SDS011;2434;48.486;7.964;2022-08-30T02:31:52;9.90;;;6.20;;
4839;SDS011;2434;48.486;7.964;2022-08-30T02:34:20;8.13;;;5.90;;
4839;SDS011;2434;48.486;7.964;2022-08-30T02:36:49;6.90;;;6.20;;
4839;SDS011;2434;48.486;7.964;2022-08-30T02:39:17;6.53;;;5.73;;
4839;SDS011;2434;48.486;7.964;2022-08-30T02:41:46;9.30;;;6.40;;
4839;SDS011;2434;48.486;7.964;2022-08-30T02:44:14;7.20;;;6.10;;
4839;SDS011;2434;48.486;7.964;2022-08-30T02:46:42;6.53;;;5.87;;
4839;SDS011;2434;48.486;7.964;2022-08-30T02:49:12;6.53;;;5.93;;
4839;SDS011;2434;48.486;7.964;2022-08-30T02:51:59;7.03;;;5.83;;
4839;SDS011;2434;48.486;7.964;2022-08-30T02:54:28;6.77;;;6.07;;
4839;SDS011;2434;48.486;7.964;2022-08-30T02:56:58;8.03;;;6.40;;
4839;SDS011;2434;48.486;7.964;2022-08-30T02:59:30;7.00;;;6.30;;
4839;SDS011;2434;48.486;7.964;2022-08-30T03:01:59;8.20;;;6.10;;
4839;SDS011;2434;48.486;7.964;2022-08-30T03:04:29;6.77;;;6.03;;
4839;SDS011;2434;48.486;7.964;2022-08-30T03:06:57;8.73;;;6.50;;
4839;SDS011;2434;48.486;7.964;2022-08-30T03:09:26;7.70;;;6.90;;
4839;SDS011;2434;48.486;7.964;2022-08-30T03:11:55;6.77;;;6.07;;
4839;SDS011;2434;48.486;7.964;2022-08-30T03:14:23;6.80;;;6.13;;
4839;SDS011;2434;48.486;7.964;2022-08-30T03:16:51;6.90;;;6.30;;
4839;SDS011;2434;48.486;7.964;2022-08-30T03:19:20;6.17;;;5.57;;
4839;SDS011;2434;48.486;7.964;2022-08-30T03:21:50;8.03;;;6.20;;
4839;SDS011;2434;48.486;7.964;2022-08-30T03:24:19;10.57;;;6.13;;
4839;SDS011;2434;48.486;7.964;2022-08-30T03:26:47;10.80;;;6.70;;
4839;SDS011;2434;48.486;7.964;2022-08-30T03:29:15;6.40;;;5.80;;
4839;SDS011;2434;48.486;7.964;2022-08-30T03:31:44;9.80;;;6.33;;
4839;SDS011;2434;48.486;7.964;2022-08-30T03:34:19;6.60;;;6.00;;
4839;SDS011;2434;48.486;7.964;2022-08-30T03:36:47;6.20;;;5.60;;
4839;SDS011;2434;48.486;7.964;2022-08-30T03:39:17;7.17;;;6.47;;
4839;SDS011;2434;48.486;7.964;2022-08-30T03:41:47;6.50;;;5.90;;
4839;SDS011;2434;48.486;7.964;2022-08-30T03:44:17;7.50;;;6.10;;
4839;SDS011;2434;48.486;7.964;2022-08-30T03:46:46;7.37;;;6.23;;
4839;SDS011;2434;48.486;7.964;2022-08-30T03:49:16;7.40;;;6.27;;
4839;SDS011;2434;48.486;7.964;2022-08-30T03:51:44;8.27;;;7.17;;
4839;SDS011;2434;48.486;7.964;2022-08-30T03:54:13;7.23;;;6.53;;
4839;SDS011;2434;48.486;7.964;2022-08-30T03:56:43;7.20;;;6.33;;
4839;SDS011;2434;48.486;7.964;2022-08-30T03:59:11;7.23;;;6.13;;
4839;SDS011;2434;48.486;7.964;2022-08-30T04:01:39;7.80;;;6.70;;
4839;SDS011;2434;48.486;7.964;2022-08-30T04:04:09;7.53;;;6.33;;
4839;SDS011;2434;48.486;7.964;2022-08-30T04:06:37;6.83;;;6.23;;
4839;SDS011;2434;48.486;7.964;2022-08-30T04:09:06;8.30;;;7.27;;
4839;SDS011;2434;48.486;7.964;2022-08-30T04:11:34;6.93;;;6.23;;
4839;SDS011;2434;48.486;7.964;2022-08-30T04:14:04;6.87;;;6.27;;
4839;SDS011;2434;48.486;7.964;2022-08-30T04:16:33;7.53;;;5.63;;
4839;SDS011;2434;48.486;7.964;2022-08-30T04:19:01;8.00;;;7.20;;
4839;SDS011;2434;48.486;7.964;2022-08-30T04:21:30;13.33;;;6.43;;
4839;SDS011;2434;48.486;7.964;2022-08-30T04:24:02;10.20;;;6.83;;
4839;SDS011;2434;48.486;7.964;2022-08-30T04:26:30;7.70;;;6.90;;
4839;SDS011;2434;48.486;7.964;2022-08-30T04:28:59;7.70;;;6.60;;
4839;SDS011;2434;48.486;7.964;2022-08-30T04:31:29;7.67;;;6.13;;
4839;SDS011;2434;48.486;7.964;2022-08-30T04:33:57;8.00;;;7.20;;
4839;SDS011;2434;48.486;7.964;2022-08-30T04:36:25;7.03;;;6.13;;
4839;SDS011;2434;48.486;7.964;2022-08-30T04:38:53;9.70;;;7.53;;
4839;SDS011;2434;48.486;7.964;2022-08-30T04:41:22;8.43;;;7.47;;
4839;SDS011;2434;48.486;7.964;2022-08-30T04:43:50;9.23;;;6.70;;
4839;SDS011;2434;48.486;7.964;2022-08-30T04:46:18;7.13;;;6.10;;
4839;SDS011;2434;48.486;7.964;2022-08-30T04:48:48;8.23;;;6.57;;
4839;SDS011;2434;48.486;7.964;2022-08-30T04:51:17;8.53;;;7.30;;
4839;SDS011;2434;48.486;7.964;2022-08-30T04:53:45;9.33;;;6.57;;
4839;SDS011;2434;48.486;7.964;2022-08-30T04:56:14;8.53;;;7.40;;
4839;SDS011;2434;48.486;7.964;2022-08-30T04:58:44;9.60;;;7.33;;
4839;SDS011;2434;48.486;7.964;2022-08-30T05:01:13;8.10;;;7.23;;
4839;SDS011;2434;48.486;7.964;2022-08-30T05:03:45;12.83;;;7.20;;
4839;SDS011;2434;48.486;7.964;2022-08-30T05:06:15;7.30;;;6.60;;
4839;SDS011;2434;48.486;7.964;2022-08-30T05:08:44;8.77;;;6.87;;
4839;SDS011;2434;48.486;7.964;2022-08-30T05:11:13;7.20;;;6.50;;
4839;SDS011;2434;48.486;7.964;2022-08-30T05:13:43;7.70;;;6.90;;
4839;SDS011;2434;48.486;7.964;2022-08-30T05:16:12;10.17;;;7.23;;
4839;SDS011;2434;48.486;7.964;2022-08-30T05:18:43;8.20;;;7.40;;
4839;SDS011;2434;48.486;7.964;2022-08-30T05:21:13;7.43;;;6.80;;
4839;SDS011;2434;48.486;7.964;2022-08-30T05:23:44;9.00;;;6.70;;
4839;SDS011;2434;48.486;7.964;2022-08-30T05:26:14;7.37;;;6.50;;
4839;SDS011;2434;48.486;7.964;2022-08-30T05:28:44;14.53;;;6.97;;
4839;SDS011;2434;48.486;7.964;2022-08-30T05:31:15;8.13;;;7.30;;
4839;SDS011;2434;48.486;7.964;2022-08-30T05:33:46;9.33;;;7.77;;
4839;SDS011;2434;48.486;7.964;2022-08-30T05:36:17;11.03;;;7.77;;
4839;SDS011;2434;48.486;7.964;2022-08-30T05:38:46;7.07;;;6.37;;
4839;SDS011;2434;48.486;7.964;2022-08-30T05:41:14;18.47;;;8.70;;
4839;SDS011;2434;48.486;7.964;2022-08-30T05:43:45;14.43;;;7.53;;
4839;SDS011;2434;48.486;7.964;2022-08-30T05:46:14;11.63;;;7.83;;
4839;SDS011;2434;48.486;7.964;2022-08-30T05:48:45;7.60;;;7.00;;
4839;SDS011;2434;48.486;7.964;2022-08-30T05:51:14;11.47;;;8.77;;
4839;SDS011;2434;48.486;7.964;2022-08-30T05:53:46;9.33;;;6.87;;
4839;SDS011;2434;48.486;7.964;2022-08-30T05:56:15;8.40;;;7.60;;
4839;SDS011;2434;48.486;7.964;2022-08-30T05:58:45;8.63;;;7.80;;
4839;SDS011;2434;48.486;7.964;2022-08-30T06:01:19;10.00;;;7.20;;
4839;SDS011;2434;48.486;7.964;2022-08-30T06:03:48;8.70;;;7.60;;
4839;SDS011;2434;48.486;7.964;2022-08-30T06:06:18;11.60;;;8.20;;
4839;SDS011;2434;48.486;7.964;2022-08-30T06:08:47;9.77;;;8.63;;
4839;SDS011;2434;48.486;7.964;2022-08-30T06:11:16;8.60;;;7.70;;
4839;SDS011;2434;48.486;7.964;2022-08-30T06:13:46;11.07;;;7.80;;
4839;SDS011;2434;48.486;7.964;2022-08-30T06:16:16;10.40;;;8.50;;
4839;SDS011;2434;48.486;7.964;2022-08-30T06:18:47;9.10;;;8.20;;
4839;SDS011;2434;48.486;7.964;2022-08-30T06:21:15;11.27;;;9.27;;
4839;SDS011;2434;48.486;7.964;2022-08-30T06:23:46;20.77;;;8.23;;
4839;SDS011;2434;48.486;7.964;2022-08-30T06:26:15;9.23;;;7.57;;
4839;SDS011;2434;48.486;7.964;2022-08-30T06:28:44;13.03;;;8.03;;
4839;SDS011;2434;48.486;7.964;2022-08-30T06:31:13;15.53;;;8.80;;
4839;SDS011;2434;48.486;7.964;2022-08-30T06:33:43;17.93;;;8.87;;
4839;SDS011;2434;48.486;7.964;2022-08-30T06:36:13;9.63;;;7.63;;
4839;SDS011;2434;48.486;7.964;2022-08-30T06:38:47;10.83;;;8.60;;
4839;SDS011;2434;48.486;7.964;2022-08-30T06:41:20;14.37;;;8.97;;
4839;SDS011;2434;48.486;7.964;2022-08-30T06:43:49;12.83;;;8.30;;
4839;SDS011;2434;48.486;7.964;2022-08-30T06:46:18;11.80;;;7.80;;
4839;SDS011;2434;48.486;7.964;2022-08-30T06:48:48;12.23;;;8.27;;
4839;SDS011;2434;48.486;7.964;2022-08-30T06:51:21;11.97;;;7.00;;
4839;SDS011;2434;48.486;7.964;2022-08-30T06:53:53;8.70;;;7.20;;
4839;SDS011;2434;48.486;7.964;2022-08-30T06:56:22;9.13;;;6.90;;
4839;SDS011;2434;48.486;7.964;2022-08-30T06:58:53;8.53;;;6.43;;
4839;SDS011;2434;48.486;7.964;2022-08-30T07:01:23;6.97;;;6.23;;
4839;SDS011;2434;48.486;7.964;2022-08-30T07:03:52;10.17;;;7.63;;
4839;SDS011;2434;48.486;7.964;2022-08-30T07:06:21;8.40;;;7.50;;
4839;SDS011;2434;48.486;7.964;2022-08-30T07:08:53;15.17;;;8.17;;
4839;SDS011;2434;48.486;7.964;2022-08-30T07:11:26;9.53;;;6.70;;
4839;SDS011;2434;48.486;7.964;2022-08-30T07:13:56;6.83;;;6.00;;
4839;SDS011;2434;48.486;7.964;2022-08-30T07:16:25;9.33;;;6.93;;
4839;SDS011;2434;48.486;7.964;2022-08-30T07:18:54;14.40;;;6.93;;
4839;SDS011;2434;48.486;7.964;2022-08-30T07:21:23;9.63;;;6.60;;
4839;SDS011;2434;48.486;7.964;2022-08-30T07:23:55;8.80;;;7.90;;
4839;SDS011;2434;48.486;7.964;2022-08-30T07:26:26;12.60;;;8.10;;
4839;SDS011;2434;48.486;7.964;2022-08-30T07:28:56;12.20;;;6.50;;
4839;SDS011;2434;48.486;7.964;2022-08-30T07:31:24;9.47;;;6.70;;
4839;SDS011;2434;48.486;7.964;2022-08-30T07:33:53;11.63;;;7.50;;
4839;SDS011;2434;48.486;7.964;2022-08-30T07:36:22;9.90;;;7.43;;
4839;SDS011;2434;48.486;7.964;2022-08-30T07:38:51;18.07;;;7.40;;
4839;SDS011;2434;48.486;7.964;2022-08-30T07:41:23;9.50;;;7.37;;
4839;SDS011;2434;48.486;7.964;2022-08-30T07:43:53;15.20;;;6.40;;
4839;SDS011;2434;48.486;7.964;2022-08-30T07:46:23;7.93;;;6.97;;
4839;SDS011;2434;48.486;7.964;2022-08-30T07:48:53;19.07;;;6.43;;
4839;SDS011;2434;48.486;7.964;2022-08-30T07:51:22;11.37;;;6.23;;
4839;SDS011;2434;48.486;7.964;2022-08-30T07:53:51;14.90;;;6.23;;
4839;SDS011;2434;48.486;7.964;2022-08-30T07:56:22;9.67;;;7.23;;
4839;SDS011;2434;48.486;7.964;2022-08-30T07:58:51;11.77;;;6.07;;
4839;SDS011;2434;48.486;7.964;2022-08-30T08:01:21;6.37;;;5.77;;
4839;SDS011;2434;48.486;7.964;2022-08-30T08:03:50;12.50;;;6.40;;
4839;SDS011;2434;48.486;7.964;2022-08-30T08:06:19;8.60;;;5.87;;
4839;SDS011;2434;48.486;7.964;2022-08-30T08:08:48;8.03;;;5.87;;
4839;SDS011;2434;48.486;7.964;2022-08-30T08:11:20;11.77;;;5.33;;
4839;SDS011;2434;48.486;7.964;2022-08-30T08:13:58;14.27;;;6.40;;
4839;SDS011;2434;48.486;7.964;2022-08-30T08:16:27;7.83;;;5.07;;
4839;SDS011;2434;48.486;7.964;2022-08-30T08:18:57;10.13;;;6.00;;
4839;SDS011;2434;48.486;7.964;2022-08-30T08:21:26;10.33;;;5.77;;
4839;SDS011;2434;48.486;7.964;2022-08-30T08:23:55;6.57;;;5.50;;
4839;SDS011;2434;48.486;7.964;2022-08-30T08:26:24;10.90;;;6.10;;
4839;SDS011;2434;48.486;7.964;2022-08-30T08:28:53;7.63;;;6.10;;
4839;SDS011;2434;48.486;7.964;2022-08-30T08:31:22;6.90;;;5.47;;
4839;SDS011;2434;48.486;7.964;2022-08-30T08:33:58;6.13;;;5.20;;
4839;SDS011;2434;48.486;7.964;2022-08-30T08:36:32;8.47;;;5.60;;
4839;SDS011;2434;48.486;7.964;2022-08-30T08:39:02;7.70;;;5.73;;
4839;SDS011;2434;48.486;7.964;2022-08-30T08:41:42;13.20;;;5.50;;
4839;SDS011;2434;48.486;7.964;2022-08-30T08:44:20;15.13;;;6.20;;
4839;SDS011;2434;48.486;7.964;2022-08-30T08:47:01;10.73;;;5.93;;
4839;SDS011;2434;48.486;7.964;2022-08-30T08:49:39;6.80;;;5.40;;
4839;SDS011;2434;48.486;7.964;2022-08-30T08:52:12;11.93;;;5.60;;
4839;SDS011;2434;48.486;7.964;2022-08-30T08:55:06;10.13;;;5.23;;
4839;SDS011;2434;48.486;7.964;2022-08-30T08:57:39;8.73;;;5.20;;
4839;SDS011;2434;48.486;7.964;2022-08-30T09:00:09;7.30;;;5.30;;
4839;SDS011;2434;48.486;7.964;2022-08-30T09:02:39;10.30;;;5.40;;
4839;SDS011;2434;48.486;7.964;2022-08-30T09:05:10;10.77;;;6.03;;
4839;SDS011;2434;48.486;7.964;2022-08-30T09:07:42;7.97;;;5.87;;
4839;SDS011;2434;48.486;7.964;2022-08-30T09:10:15;11.10;;;5.30;;
4839;SDS011;2434;48.486;7.964;2022-08-30T09:13:05;6.90;;;4.30;;
4839;SDS011;2434;48.486;7.964;2022-08-30T09:15:39;6.17;;;5.10;;
4839;SDS011;2434;48.486;7.964;2022-08-30T09:18:07;7.87;;;4.90;;
4839;SDS011;2434;48.486;7.964;2022-08-30T09:20:46;7.63;;;4.17;;
4839;SDS011;2434;48.486;7.964;2022-08-30T09:23:19;6.53;;;4.83;;
4839;SDS011;2434;48.486;7.964;2022-08-30T09:25:53;10.97;;;5.40;;
4839;SDS011;2434;48.486;7.964;2022-08-30T09:28:25;5.87;;;4.90;;
4839;SDS011;2434;48.486;7.964;2022-08-30T09:31:00;5.33;;;4.83;;
4839;SDS011;2434;48.486;7.964;2022-08-30T09:33:37;6.40;;;4.20;;
4839;SDS011;2434;48.486;7.964;2022-08-30T09:36:11;10.33;;;5.70;;
4839;SDS011;2434;48.486;7.964;2022-08-30T09:38:55;6.30;;;5.10;;
4839;SDS011;2434;48.486;7.964;2022-08-30T09:41:27;13.47;;;5.30;;
4839;SDS011;2434;48.486;7.964;2022-08-30T09:44:07;9.00;;;5.20;;
4839;SDS011;2434;48.486;7.964;2022-08-30T09:46:45;9.73;;;5.00;;
4839;SDS011;2434;48.486;7.964;2022-08-30T09:49:29;6.17;;;4.77;;
4839;SDS011;2434;48.486;7.964;2022-08-30T09:52:07;11.00;;;5.10;;
4839;SDS011;2434;48.486;7.964;2022-08-30T09:54:46;5.20;;;4.70;;
4839;SDS011;2434;48.486;7.964;2022-08-30T09:57:28;5.73;;;5.17;;
4839;SDS011;2434;48.486;7.964;2022-08-30T10:00:07;7.30;;;5.60;;
4839;SDS011;2434;48.486;7.964;2022-08-30T10:02:50;8.17;;;5.40;;
4839;SDS011;2434;48.486;7.964;2022-08-30T10:05:26;8.30;;;4.40;;
4839;SDS011;2434;48.486;7.964;2022-08-30T10:08:01;7.60;;;4.93;;
4839;SDS011;2434;48.486;7.964;2022-08-30T10:10:40;9.33;;;4.70;;
4839;SDS011;2434;48.486;7.964;2022-08-30T10:13:18;8.70;;;5.10;;
4839;SDS011;2434;48.486;7.964;2022-08-30T10:16:14;6.00;;;5.23;;
4839;SDS011;2434;48.486;7.964;2022-08-30T10:18:50;6.40;;;5.20;;
4839;SDS011;2434;48.486;7.964;2022-08-30T10:21:33;9.80;;;5.37;;
4839;SDS011;2434;48.486;7.964;2022-08-30T10:24:06;9.50;;;4.40;;
4839;SDS011;2434;48.486;7.964;2022-08-30T10:26:39;8.07;;;5.13;;
4839;SDS011;2434;48.486;7.964;2022-08-30T10:29:12;8.53;;;5.03;;
4839;SDS011;2434;48.486;7.964;2022-08-30T10:31:45;8.53;;;5.40;;
4839;SDS011;2434;48.486;7.964;2022-08-30T10:34:19;8.03;;;4.90;;
4839;SDS011;2434;48.486;7.964;2022-08-30T10:36:53;8.13;;;5.10;;
4839;SDS011;2434;48.486;7.964;2022-08-30T10:39:26;5.70;;;5.03;;
4839;SDS011;2434;48.486;7.964;2022-08-30T10:42:00;8.10;;;5.00;;
4839;SDS011;2434;48.486;7.964;2022-08-30T10:44:33;8.13;;;4.87;;
4839;SDS011;2434;48.486;7.964;2022-08-30T10:47:11;11.13;;;6.07;;
4839;SDS011;2434;48.486;7.964;2022-08-30T10:49:49;7.83;;;4.70;;
4839;SDS011;2434;48.486;7.964;2022-08-30T10:52:32;10.30;;;5.80;;
4839;SDS011;2434;48.486;7.964;2022-08-30T10:55:07;6.43;;;4.90;;
4839;SDS011;2434;48.486;7.964;2022-08-30T10:57:41;14.30;;;5.10;;
4839;SDS011;2434;48.486;7.964;2022-08-30T11:00:11;8.00;;;4.93;;
4839;SDS011;2434;48.486;7.964;2022-08-30T11:06:07;6.10;;;4.23;;
4839;SDS011;2434;48.486;7.964;2022-08-30T11:11:50;5.10;;;4.10;;
4839;SDS011;2434;48.486;7.964;2022-08-30T11:14:28;5.77;;;4.47;;
4839;SDS011;2434;48.486;7.964;2022-08-30T11:16:58;5.87;;;5.23;;
4839;SDS011;2434;48.486;7.964;2022-08-30T11:19:28;7.00;;;5.07;;
4839;SDS011;2434;48.486;7.964;2022-08-30T11:22:12;6.50;;;4.70;;
4839;SDS011;2434;48.486;7.964;2022-08-30T11:25:00;11.77;;;5.50;;
4839;SDS011;2434;48.486;7.964;2022-08-30T11:27:39;8.70;;;6.03;;
4839;SDS011;2434;48.486;7.964;2022-08-30T11:33:39;8.53;;;5.00;;
4839;SDS011;2434;48.486;7.964;2022-08-30T11:36:12;10.37;;;5.40;;
4839;SDS011;2434;48.486;7.964;2022-08-30T11:39:50;11.00;;;6.10;;
4839;SDS011;2434;48.486;7.964;2022-08-30T11:42:34;7.73;;;4.87;;
4839;SDS011;2434;48.486;7.964;2022-08-30T11:54:47;7.40;;;5.77;;
4839;SDS011;2434;48.486;7.964;2022-08-30T11:57:23;12.93;;;5.77;;
4839;SDS011;2434;48.486;7.964;2022-08-30T12:00:01;7.27;;;5.43;;
4839;SDS011;2434;48.486;7.964;2022-08-30T12:02:39;15.83;;;5.40;;
4839;SDS011;2434;48.486;7.964;2022-08-30T12:14:38;7.70;;;4.90;;
4839;SDS011;2434;48.486;7.964;2022-08-30T12:17:20;6.10;;;5.47;;
4839;SDS011;2434;48.486;7.964;2022-08-30T12:20:14;5.83;;;4.87;;
4839;SDS011;2434;48.486;7.964;2022-08-30T12:22:47;8.50;;;5.57;;
4839;SDS011;2434;48.486;7.964;2022-08-30T12:25:19;14.53;;;6.00;;
4839;SDS011;2434;48.486;7.964;2022-08-30T12:28:06;10.73;;;5.93;;
4839;SDS011;2434;48.486;7.964;2022-08-30T12:30:41;5.93;;;5.30;;
4839;SDS011;2434;48.486;7.964;2022-08-30T12:33:12;9.17;;;5.97;;
4839;SDS011;2434;48.486;7.964;2022-08-30T12:35:55;8.90;;;4.97;;
4839;SDS011;2434;48.486;7.964;2022-08-30T12:38:25;8.80;;;5.40;;
4839;SDS011;2434;48.486;7.964;2022-08-30T12:40:56;6.43;;;5.20;;
4839;SDS011;2434;48.486;7.964;2022-08-30T12:43:30;6.33;;;5.00;;
4839;SDS011;2434;48.486;7.964;2022-08-30T12:46:08;12.97;;;6.13;;
4839;SDS011;2434;48.486;7.964;2022-08-30T12:48:41;12.13;;;6.03;;
4839;SDS011;2434;48.486;7.964;2022-08-30T12:51:24;13.10;;;5.50;;
4839;SDS011;2434;48.486;7.964;2022-08-30T12:54:01;9.50;;;5.37;;
4839;SDS011;2434;48.486;7.964;2022-08-30T12:56:48;8.60;;;4.93;;
4839;SDS011;2434;48.486;7.964;2022-08-30T13:02:25;6.60;;;5.73;;
4839;SDS011;2434;48.486;7.964;2022-08-30T13:08:07;8.13;;;5.60;;
4839;SDS011;2434;48.486;7.964;2022-08-30T13:10:51;12.33;;;5.87;;
4839;SDS011;2434;48.486;7.964;2022-08-30T13:13:25;5.60;;;5.10;;
4839;SDS011;2434;48.486;7.964;2022-08-30T13:16:08;5.80;;;5.27;;
4839;SDS011;2434;48.486;7.964;2022-08-30T13:18:40;6.80;;;5.40;;
4839;SDS011;2434;48.486;7.964;2022-08-30T13:21:18;5.47;;;4.97;;
4839;SDS011;2434;48.486;7.964;2022-08-30T13:23:51;6.53;;;5.30;;
4839;SDS011;2434;48.486;7.964;2022-08-30T13:26:22;8.97;;;5.50;;
4839;SDS011;2434;48.486;7.964;2022-08-30T13:28:52;5.53;;;5.07;;
4839;SDS011;2434;48.486;7.964;2022-08-30T13:31:24;5.47;;;4.97;;
4839;SDS011;2434;48.486;7.964;2022-08-30T13:33:57;7.10;;;5.00;;
4839;SDS011;2434;48.486;7.964;2022-08-30T13:36:28;7.27;;;5.00;;
4839;SDS011;2434;48.486;7.964;2022-08-30T13:38:59;5.53;;;5.03;;
4839;SDS011;2434;48.486;7.964;2022-08-30T13:41:28;5.30;;;4.80;;
4839;SDS011;2434;48.486;7.964;2022-08-30T13:44:00;4.80;;;4.40;;
4839;SDS011;2434;48.486;7.964;2022-08-30T13:46:40;6.07;;;4.67;;
4839;SDS011;2434;48.486;7.964;2022-08-30T13:49:20;10.30;;;5.00;;
4839;SDS011;2434;48.486;7.964;2022-08-30T13:52:11;5.90;;;5.17;;
4839;SDS011;2434;48.486;7.964;2022-08-30T13:54:46;6.43;;;4.93;;
4839;SDS011;2434;48.486;7.964;2022-08-30T13:57:15;6.73;;;4.50;;
4839;SDS011;2434;48.486;7.964;2022-08-30T14:00:07;14.20;;;5.03;;
4839;SDS011;2434;48.486;7.964;2022-08-30T14:02:41;6.20;;;4.27;;
4839;SDS011;2434;48.486;7.964;2022-08-30T14:05:18;6.40;;;5.40;;
4839;SDS011;2434;48.486;7.964;2022-08-30T14:08:07;5.03;;;4.60;;
4839;SDS011;2434;48.486;7.964;2022-08-30T14:10:57;5.10;;;4.70;;
4839;SDS011;2434;48.486;7.964;2022-08-30T14:13:25;6.90;;;5.37;;
4839;SDS011;2434;48.486;7.964;2022-08-30T14:15:55;5.30;;;4.80;;
4839;SDS011;2434;48.486;7.964;2022-08-30T14:18:46;6.10;;;4.27;;
4839;SDS011;2434;48.486;7.964;2022-08-30T14:21:16;10.60;;;4.77;;
4839;SDS011;2434;48.486;7.964;2022-08-30T14:23:50;9.00;;;4.43;;
4839;SDS011;2434;48.486;7.964;2022-08-30T14:26:20;4.73;;;4.30;;
4839;SDS011;2434;48.486;7.964;2022-08-30T14:28:51;6.13;;;4.47;;
4839;SDS011;2434;48.486;7.964;2022-08-30T14:31:19;4.07;;;3.77;;
4839;SDS011;2434;48.486;7.964;2022-08-30T14:33:48;4.03;;;3.73;;
4839;SDS011;2434;48.486;7.964;2022-08-30T14:36:18;10.67;;;4.03;;
4839;SDS011;2434;48.486;7.964;2022-08-30T14:38:47;6.50;;;5.00;;
4839;SDS011;2434;48.486;7.964;2022-08-30T14:41:16;6.77;;;4.77;;
4839;SDS011;2434;48.486;7.964;2022-08-30T14:43:44;4.70;;;4.30;;
4839;SDS011;2434;48.486;7.964;2022-08-30T14:46:13;4.37;;;4.00;;
4839;SDS011;2434;48.486;7.964;2022-08-30T14:48:41;5.03;;;4.70;;
4839;SDS011;2434;48.486;7.964;2022-08-30T14:51:12;4.70;;;4.30;;
4839;SDS011;2434;48.486;7.964;2022-08-30T14:53:44;4.43;;;3.77;;
4839;SDS011;2434;48.486;7.964;2022-08-30T14:56:13;5.10;;;3.73;;
4839;SDS011;2434;48.486;7.964;2022-08-30T14:58:46;4.67;;;3.63;;
4839;SDS011;2434;48.486;7.964;2022-08-30T15:01:14;7.73;;;3.87;;
4839;SDS011;2434;48.486;7.964;2022-08-30T15:03:43;6.53;;;4.00;;
4839;SDS011;2434;48.486;7.964;2022-08-30T15:06:11;6.30;;;4.00;;
4839;SDS011;2434;48.486;7.964;2022-08-30T15:08:41;6.30;;;4.30;;
4839;SDS011;2434;48.486;7.964;2022-08-30T15:11:15;6.57;;;4.30;;
4839;SDS011;2434;48.486;7.964;2022-08-30T15:13:45;4.60;;;3.90;;
4839;SDS011;2434;48.486;7.964;2022-08-30T15:16:19;4.37;;;3.97;;
4839;SDS011;2434;48.486;7.964;2022-08-30T15:18:49;4.67;;;4.27;;
4839;SDS011;2434;48.486;7.964;2022-08-30T15:21:22;4.13;;;3.73;;
4839;SDS011;2434;48.486;7.964;2022-08-30T15:23:52;4.07;;;3.67;;
4839;SDS011;2434;48.486;7.964;2022-08-30T15:26:22;5.57;;;3.83;;
4839;SDS011;2434;48.486;7.964;2022-08-30T15:28:52;4.40;;;4.00;;
4839;SDS011;2434;48.486;7.964;2022-08-30T15:31:22;3.90;;;3.60;;
4839;SDS011;2434;48.486;7.964;2022-08-30T15:33:54;4.23;;;3.83;;
4839;SDS011;2434;48.486;7.964;2022-08-30T15:36:22;3.87;;;3.67;;
4839;SDS011;2434;48.486;7.964;2022-08-30T15:38:51;3.90;;;3.70;;
4839;SDS011;2434;48.486;7.964;2022-08-30T15:41:22;5.00;;;4.57;;
4839;SDS011;2434;48.486;7.964;2022-08-30T15:43:52;5.43;;;4.93;;
4839;SDS011;2434;48.486;7.964;2022-08-30T15:46:22;6.33;;;4.30;;
4839;SDS011;2434;48.486;7.964;2022-08-30T15:48:58;5.03;;;4.63;;
4839;SDS011;2434;48.486;7.964;2022-08-30T15:51:28;6.60;;;4.50;;
4839;SDS011;2434;48.486;7.964;2022-08-30T15:54:07;6.20;;;4.73;;
4839;SDS011;2434;48.486;7.964;2022-08-30T15:56:39;7.03;;;3.80;;
4839;SDS011;2434;48.486;7.964;2022-08-30T15:59:07;5.93;;;5.37;;
4839;SDS011;2434;48.486;7.964;2022-08-30T16:01:37;5.20;;;4.63;;
4839;SDS011;2434;48.486;7.964;2022-08-30T16:04:08;6.27;;;4.20;;
4839;SDS011;2434;48.486;7.964;2022-08-30T16:06:37;5.33;;;4.83;;
4839;SDS011;2434;48.486;7.964;2022-08-30T16:09:07;4.90;;;4.43;;
4839;SDS011;2434;48.486;7.964;2022-08-30T16:11:37;4.93;;;4.50;;
4839;SDS011;2434;48.486;7.964;2022-08-30T16:14:07;5.83;;;5.20;;
4839;SDS011;2434;48.486;7.964;2022-08-30T16:16:36;6.30;;;4.63;;
4839;SDS011;2434;48.486;7.964;2022-08-30T16:19:06;8.43;;;4.97;;